sensor_id;sensor_type;location;lat;lon;timestamp;temperature;humidity
51557;DHT22;38766;53.194;5.532;2023-05-31T00:50:36;13.20;99.90
51557;DHT22;38766;53.194;5.532;2023-05-31T00:53:03;13.20;99.90
51557;DHT22;38766;53.194;5.532;2023-05-31T00:55:29;13.20;99.90
51557;DHT22;38766;53.194;5.532;2023-05-31T00:57:57;13.20;99.90
51557;DHT22;38766;53.194;5.532;2023-05-31T01:00:23;13.20;99.90
51557;DHT22;38766;53.194;5.532;2023-05-31T01:02:50;13.20;99.90
51557;DHT22;38766;53.194;5.532;2023-05-31T01:05:17;13.20;99.90
51557;DHT22;38766;53.194;5.532;2023-05-31T01:07:44;13.10;99.90
51557;DHT22;38766;53.194;5.532;2023-05-31T01:10:10;13.20;99.90
51557;DHT22;38766;53.194;5.532;2023-05-31T01:15:23;13.10;99.90
51557;DHT22;38766;53.194;5.532;2023-05-31T01:20:45;13.00;99.90
51557;DHT22;38766;53.194;5.532;2023-05-31T01:26:05;12.90;99.90
51557;DHT22;38766;53.194;5.532;2023-05-31T01:28:36;12.90;99.90
51557;DHT22;38766;53.194;5.532;2023-05-31T01:31:07;12.90;99.90
51557;DHT22;38766;53.194;5.532;2023-05-31T01:33:35;12.90;99.90
51557;DHT22;38766;53.194;5.532;2023-05-31T01:36:01;12.90;99.90
51557;DHT22;38766;53.194;5.532;2023-05-31T01:38:26;12.80;99.90
51557;DHT22;38766;53.194;5.532;2023-05-31T01:40:53;12.80;99.90
51557;DHT22;38766;53.194;5.532;2023-05-31T01:43:20;12.80;99.90
51557;DHT22;38766;53.194;5.532;2023-05-31T01:45:46;12.80;99.90
51557;DHT22;38766;53.194;5.532;2023-05-31T01:48:13;12.90;99.90
51557;DHT22;38766;53.194;5.532;2023-05-31T01:50:40;12.90;99.90
51557;DHT22;38766;53.194;5.532;2023-05-31T01:53:06;12.80;99.90
51557;DHT22;38766;53.194;5.532;2023-05-31T01:55:32;12.90;99.90
51557;DHT22;38766;53.194;5.532;2023-05-31T01:57:59;12.80;99.90
51557;DHT22;38766;53.194;5.532;2023-05-31T02:00:26;12.90;99.90
51557;DHT22;38766;53.194;5.532;2023-05-31T02:02:52;12.80;99.90
51557;DHT22;38766;53.194;5.532;2023-05-31T02:05:18;12.80;99.90
51557;DHT22;38766;53.194;5.532;2023-05-31T02:07:44;12.80;99.90
51557;DHT22;38766;53.194;5.532;2023-05-31T02:10:12;12.80;99.90
51557;DHT22;38766;53.194;5.532;2023-05-31T02:12:38;12.80;99.90
51557;DHT22;38766;53.194;5.532;2023-05-31T02:15:04;12.80;99.90
51557;DHT22;38766;53.194;5.532;2023-05-31T02:17:37;12.80;99.90
51557;DHT22;38766;53.194;5.532;2023-05-31T02:20:09;12.80;99.90
51557;DHT22;38766;53.194;5.532;2023-05-31T02:22:41;12.80;99.90
51557;DHT22;38766;53.194;5.532;2023-05-31T02:25:08;12.70;99.90
51557;DHT22;38766;53.194;5.532;2023-05-31T02:27:35;12.70;99.90
51557;DHT22;38766;53.194;5.532;2023-05-31T02:30:03;12.70;99.90
51557;DHT22;38766;53.194;5.532;2023-05-31T02:32:30;12.70;99.90
51557;DHT22;38766;53.194;5.532;2023-05-31T02:35:10;12.70;99.90
51557;DHT22;38766;53.194;5.532;2023-05-31T02:37:37;12.70;99.90
51557;DHT22;38766;53.194;5.532;2023-05-31T02:40:04;12.70;99.90
51557;DHT22;38766;53.194;5.532;2023-05-31T02:42:42;12.60;99.90
51557;DHT22;38766;53.194;5.532;2023-05-31T02:45:08;12.60;99.90
51557;DHT22;38766;53.194;5.532;2023-05-31T02:47:37;12.60;99.90
51557;DHT22;38766;53.194;5.532;2023-05-31T02:50:07;12.50;99.90
51557;DHT22;38766;53.194;5.532;2023-05-31T02:52:34;12.50;99.90
51557;DHT22;38766;53.194;5.532;2023-05-31T02:55:00;12.50;99.90
51557;DHT22;38766;53.194;5.532;2023-05-31T02:57:25;12.50;99.90
51557;DHT22;38766;53.194;5.532;2023-05-31T02:59:56;12.50;99.90
51557;DHT22;38766;53.194;5.532;2023-05-31T03:02:22;12.40;99.90
51557;DHT22;38766;53.194;5.532;2023-05-31T03:04:48;12.40;99.90
51557;DHT22;38766;53.194;5.532;2023-05-31T03:07:14;12.40;99.90
51557;DHT22;38766;53.194;5.532;2023-05-31T03:09:40;12.40;99.90
51557;DHT22;38766;53.194;5.532;2023-05-31T03:12:06;12.40;99.90
51557;DHT22;38766;53.194;5.532;2023-05-31T03:14:32;12.40;99.90
51557;DHT22;38766;53.194;5.532;2023-05-31T03:16:57;12.40;99.90
51557;DHT22;38766;53.194;5.532;2023-05-31T03:19:23;12.40;99.90
51557;DHT22;38766;53.194;5.532;2023-05-31T03:21:49;12.40;99.90
51557;DHT22;38766;53.194;5.532;2023-05-31T03:24:21;12.40;99.90
51557;DHT22;38766;53.194;5.532;2023-05-31T03:26:46;12.30;99.90
51557;DHT22;38766;53.194;5.532;2023-05-31T03:29:12;12.40;99.90
51557;DHT22;38766;53.194;5.532;2023-05-31T03:31:38;12.30;99.90
51557;DHT22;38766;53.194;5.532;2023-05-31T03:34:03;12.30;99.90
51557;DHT22;38766;53.194;5.532;2023-05-31T03:36:29;12.30;99.90
51557;DHT22;38766;53.194;5.532;2023-05-31T03:38:55;12.30;99.90
51557;DHT22;38766;53.194;5.532;2023-05-31T03:41:20;12.30;99.90
51557;DHT22;38766;53.194;5.532;2023-05-31T03:43:46;12.30;99.90
51557;DHT22;38766;53.194;5.532;2023-05-31T03:46:12;12.30;99.90
51557;DHT22;38766;53.194;5.532;2023-05-31T03:48:38;12.20;99.90
51557;DHT22;38766;53.194;5.532;2023-05-31T03:51:03;12.30;99.90
51557;DHT22;38766;53.194;5.532;2023-05-31T03:53:29;12.30;99.90
51557;DHT22;38766;53.194;5.532;2023-05-31T03:55:55;12.30;99.90
51557;DHT22;38766;53.194;5.532;2023-05-31T03:58:20;12.30;99.90
51557;DHT22;38766;53.194;5.532;2023-05-31T04:00:46;12.30;99.90
51557;DHT22;38766;53.194;5.532;2023-05-31T04:03:12;12.30;99.90
51557;DHT22;38766;53.194;5.532;2023-05-31T04:05:38;12.30;99.90
51557;DHT22;38766;53.194;5.532;2023-05-31T04:08:04;12.30;99.90
51557;DHT22;38766;53.194;5.532;2023-05-31T04:10:31;12.30;99.90
51557;DHT22;38766;53.194;5.532;2023-05-31T04:12:57;12.30;99.90
51557;DHT22;38766;53.194;5.532;2023-05-31T04:15:22;12.30;99.90
51557;DHT22;38766;53.194;5.532;2023-05-31T04:17:48;12.30;99.90
51557;DHT22;38766;53.194;5.532;2023-05-31T04:20:14;12.30;99.90
51557;DHT22;38766;53.194;5.532;2023-05-31T04:22:41;12.40;99.90
51557;DHT22;38766;53.194;5.532;2023-05-31T04:25:07;12.30;99.90
51557;DHT22;38766;53.194;5.532;2023-05-31T04:27:34;12.30;99.90
51557;DHT22;38766;53.194;5.532;2023-05-31T04:30:05;12.30;99.90
51557;DHT22;38766;53.194;5.532;2023-05-31T04:32:31;12.30;99.90
51557;DHT22;38766;53.194;5.532;2023-05-31T04:34:59;12.30;99.90
51557;DHT22;38766;53.194;5.532;2023-05-31T04:37:25;12.30;99.90
51557;DHT22;38766;53.194;5.532;2023-05-31T04:39:54;12.30;99.90
51557;DHT22;38766;53.194;5.532;2023-05-31T04:42:20;12.30;99.90
51557;DHT22;38766;53.194;5.532;2023-05-31T04:44:46;12.30;99.90
51557;DHT22;38766;53.194;5.532;2023-05-31T04:47:12;12.30;99.90
51557;DHT22;38766;53.194;5.532;2023-05-31T04:49:40;12.40;99.90
51557;DHT22;38766;53.194;5.532;2023-05-31T04:52:07;12.40;99.90
51557;DHT22;38766;53.194;5.532;2023-05-31T04:54:35;12.40;99.90
51557;DHT22;38766;53.194;5.532;2023-05-31T04:57:01;12.40;99.90
51557;DHT22;38766;53.194;5.532;2023-05-31T04:59:26;12.40;99.90
51557;DHT22;38766;53.194;5.532;2023-05-31T05:01:52;12.40;99.90
51557;DHT22;38766;53.194;5.532;2023-05-31T05:04:17;12.40;99.90
51557;DHT22;38766;53.194;5.532;2023-05-31T05:06:43;12.50;99.90
51557;DHT22;38766;53.194;5.532;2023-05-31T05:09:09;12.50;99.90
51557;DHT22;38766;53.194;5.532;2023-05-31T05:11:35;12.50;99.90
51557;DHT22;38766;53.194;5.532;2023-05-31T05:14:00;12.60;99.90
51557;DHT22;38766;53.194;5.532;2023-05-31T05:16:26;12.60;99.90
51557;DHT22;38766;53.194;5.532;2023-05-31T05:18:52;12.50;99.90
51557;DHT22;38766;53.194;5.532;2023-05-31T05:21:18;12.60;99.90
51557;DHT22;38766;53.194;5.532;2023-05-31T05:23:43;12.60;99.90
51557;DHT22;38766;53.194;5.532;2023-05-31T05:26:10;12.60;99.90
51557;DHT22;38766;53.194;5.532;2023-05-31T05:28:35;12.70;99.90
51557;DHT22;38766;53.194;5.532;2023-05-31T05:31:02;12.70;99.90
51557;DHT22;38766;53.194;5.532;2023-05-31T05:33:29;12.70;99.90
51557;DHT22;38766;53.194;5.532;2023-05-31T05:35:55;12.70;99.90
51557;DHT22;38766;53.194;5.532;2023-05-31T05:38:21;12.80;99.90
51557;DHT22;38766;53.194;5.532;2023-05-31T05:40:47;12.70;99.90
51557;DHT22;38766;53.194;5.532;2023-05-31T05:43:13;12.80;99.90
51557;DHT22;38766;53.194;5.532;2023-05-31T05:45:39;12.90;99.90
51557;DHT22;38766;53.194;5.532;2023-05-31T05:48:05;12.90;99.90
51557;DHT22;38766;53.194;5.532;2023-05-31T05:50:30;12.90;99.90
51557;DHT22;38766;53.194;5.532;2023-05-31T05:52:56;13.00;99.90
51557;DHT22;38766;53.194;5.532;2023-05-31T05:55:22;13.00;99.90
51557;DHT22;38766;53.194;5.532;2023-05-31T05:57:47;13.00;99.90
51557;DHT22;38766;53.194;5.532;2023-05-31T06:00:13;13.10;99.90
51557;DHT22;38766;53.194;5.532;2023-05-31T06:02:41;13.10;99.90
51557;DHT22;38766;53.194;5.532;2023-05-31T06:05:07;13.20;99.90
51557;DHT22;38766;53.194;5.532;2023-05-31T06:07:33;13.30;99.90
51557;DHT22;38766;53.194;5.532;2023-05-31T06:09:59;13.30;99.90
51557;DHT22;38766;53.194;5.532;2023-05-31T06:12:28;13.40;99.90
51557;DHT22;38766;53.194;5.532;2023-05-31T06:14:55;13.40;99.90
51557;DHT22;38766;53.194;5.532;2023-05-31T06:17:21;13.40;99.90
51557;DHT22;38766;53.194;5.532;2023-05-31T06:19:47;13.50;99.90
51557;DHT22;38766;53.194;5.532;2023-05-31T06:22:13;13.50;99.90
51557;DHT22;38766;53.194;5.532;2023-05-31T06:24:40;13.50;99.90
51557;DHT22;38766;53.194;5.532;2023-05-31T06:27:06;13.60;99.90
51557;DHT22;38766;53.194;5.532;2023-05-31T06:29:32;13.60;99.90
51557;DHT22;38766;53.194;5.532;2023-05-31T06:31:58;13.70;99.90
51557;DHT22;38766;53.194;5.532;2023-05-31T06:34:24;13.80;99.90
51557;DHT22;38766;53.194;5.532;2023-05-31T06:36:49;13.80;99.90
51557;DHT22;38766;53.194;5.532;2023-05-31T06:39:16;13.90;99.90
51557;DHT22;38766;53.194;5.532;2023-05-31T06:41:41;13.90;99.90
51557;DHT22;38766;53.194;5.532;2023-05-31T06:44:07;14.00;99.90
51557;DHT22;38766;53.194;5.532;2023-05-31T06:46:32;14.10;99.90
51557;DHT22;38766;53.194;5.532;2023-05-31T06:48:58;14.10;99.90
51557;DHT22;38766;53.194;5.532;2023-05-31T06:51:24;14.20;99.90
51557;DHT22;38766;53.194;5.532;2023-05-31T06:53:50;14.30;99.90
51557;DHT22;38766;53.194;5.532;2023-05-31T06:56:16;14.40;99.90
51557;DHT22;38766;53.194;5.532;2023-05-31T06:58:43;14.50;99.90
51557;DHT22;38766;53.194;5.532;2023-05-31T07:01:09;14.60;99.90
51557;DHT22;38766;53.194;5.532;2023-05-31T07:03:35;14.60;99.90
51557;DHT22;38766;53.194;5.532;2023-05-31T07:06:01;14.70;99.90
51557;DHT22;38766;53.194;5.532;2023-05-31T07:08:26;14.70;99.90
51557;DHT22;38766;53.194;5.532;2023-05-31T07:10:53;14.80;99.90
51557;DHT22;38766;53.194;5.532;2023-05-31T07:13:19;14.90;99.90
51557;DHT22;38766;53.194;5.532;2023-05-31T07:15:44;15.00;99.90
51557;DHT22;38766;53.194;5.532;2023-05-31T07:18:10;15.20;99.90
51557;DHT22;38766;53.194;5.532;2023-05-31T07:20:35;15.40;99.90
51557;DHT22;38766;53.194;5.532;2023-05-31T07:23:01;15.50;99.90
51557;DHT22;38766;53.194;5.532;2023-05-31T07:25:27;15.50;99.90
51557;DHT22;38766;53.194;5.532;2023-05-31T07:27:53;15.50;99.90
51557;DHT22;38766;53.194;5.532;2023-05-31T07:30:19;15.60;99.90
51557;DHT22;38766;53.194;5.532;2023-05-31T07:32:45;15.70;99.90
51557;DHT22;38766;53.194;5.532;2023-05-31T07:35:11;15.70;99.90
51557;DHT22;38766;53.194;5.532;2023-05-31T07:37:37;15.80;99.90
51557;DHT22;38766;53.194;5.532;2023-05-31T07:40:02;15.80;99.90
51557;DHT22;38766;53.194;5.532;2023-05-31T07:42:30;15.90;99.90
51557;DHT22;38766;53.194;5.532;2023-05-31T07:44:58;16.10;99.90
51557;DHT22;38766;53.194;5.532;2023-05-31T07:47:24;16.20;99.90
51557;DHT22;38766;53.194;5.532;2023-05-31T07:49:50;16.30;99.90
51557;DHT22;38766;53.194;5.532;2023-05-31T07:52:17;16.30;99.90
51557;DHT22;38766;53.194;5.532;2023-05-31T07:54:47;16.40;99.90
51557;DHT22;38766;53.194;5.532;2023-05-31T07:57:14;16.40;99.90
51557;DHT22;38766;53.194;5.532;2023-05-31T07:59:40;16.40;99.90
51557;DHT22;38766;53.194;5.532;2023-05-31T08:02:06;16.50;99.90
51557;DHT22;38766;53.194;5.532;2023-05-31T08:04:31;16.50;99.90
51557;DHT22;38766;53.194;5.532;2023-05-31T08:06:57;16.60;99.90
51557;DHT22;38766;53.194;5.532;2023-05-31T08:09:23;16.60;99.90
51557;DHT22;38766;53.194;5.532;2023-05-31T08:11:49;16.80;99.90
51557;DHT22;38766;53.194;5.532;2023-05-31T08:14:14;16.60;99.90
51557;DHT22;38766;53.194;5.532;2023-05-31T08:16:40;16.50;99.90
51557;DHT22;38766;53.194;5.532;2023-05-31T08:19:06;16.50;99.90
51557;DHT22;38766;53.194;5.532;2023-05-31T08:21:31;16.60;99.90
51557;DHT22;38766;53.194;5.532;2023-05-31T08:23:57;16.60;99.90
51557;DHT22;38766;53.194;5.532;2023-05-31T08:26:24;16.70;99.90
51557;DHT22;38766;53.194;5.532;2023-05-31T08:28:51;16.80;99.90
51557;DHT22;38766;53.194;5.532;2023-05-31T08:31:17;16.90;99.90
51557;DHT22;38766;53.194;5.532;2023-05-31T08:33:59;16.90;99.90
51557;DHT22;38766;53.194;5.532;2023-05-31T08:36:25;16.90;99.90
51557;DHT22;38766;53.194;5.532;2023-05-31T08:38:52;17.00;99.90
51557;DHT22;38766;53.194;5.532;2023-05-31T08:41:18;16.90;99.90
51557;DHT22;38766;53.194;5.532;2023-05-31T08:43:45;16.90;99.90
51557;DHT22;38766;53.194;5.532;2023-05-31T08:46:14;16.90;99.90
51557;DHT22;38766;53.194;5.532;2023-05-31T08:49:02;16.90;99.90
51557;DHT22;38766;53.194;5.532;2023-05-31T08:51:31;17.10;99.90
51557;DHT22;38766;53.194;5.532;2023-05-31T08:54:02;17.10;99.90
51557;DHT22;38766;53.194;5.532;2023-05-31T08:56:28;17.20;99.90
51557;DHT22;38766;53.194;5.532;2023-05-31T08:58:54;17.10;99.90
51557;DHT22;38766;53.194;5.532;2023-05-31T09:01:22;17.20;99.90
51557;DHT22;38766;53.194;5.532;2023-05-31T09:03:50;17.20;99.90
51557;DHT22;38766;53.194;5.532;2023-05-31T09:06:18;17.30;99.90
51557;DHT22;38766;53.194;5.532;2023-05-31T09:08:43;17.30;99.90
51557;DHT22;38766;53.194;5.532;2023-05-31T09:11:09;17.30;99.90
51557;DHT22;38766;53.194;5.532;2023-05-31T09:13:37;17.30;99.90
51557;DHT22;38766;53.194;5.532;2023-05-31T09:16:03;17.30;99.90
51557;DHT22;38766;53.194;5.532;2023-05-31T09:18:37;17.30;99.90
51557;DHT22;38766;53.194;5.532;2023-05-31T09:21:08;17.30;99.90
51557;DHT22;38766;53.194;5.532;2023-05-31T09:23:34;17.40;99.90
51557;DHT22;38766;53.194;5.532;2023-05-31T09:26:00;17.40;99.90
51557;DHT22;38766;53.194;5.532;2023-05-31T09:28:26;17.40;99.90
51557;DHT22;38766;53.194;5.532;2023-05-31T09:31:06;17.30;99.90
51557;DHT22;38766;53.194;5.532;2023-05-31T09:33:41;17.30;99.90
51557;DHT22;38766;53.194;5.532;2023-05-31T09:36:08;17.20;99.90
51557;DHT22;38766;53.194;5.532;2023-05-31T09:38:35;17.30;99.90
51557;DHT22;38766;53.194;5.532;2023-05-31T09:41:18;17.20;99.90
51557;DHT22;38766;53.194;5.532;2023-05-31T09:43:46;17.20;99.90
51557;DHT22;38766;53.194;5.532;2023-05-31T09:46:13;17.10;99.90
51557;DHT22;38766;53.194;5.532;2023-05-31T09:48:39;17.20;99.90
51557;DHT22;38766;53.194;5.532;2023-05-31T09:51:12;17.20;99.90
51557;DHT22;38766;53.194;5.532;2023-05-31T09:53:43;17.30;99.90
51557;DHT22;38766;53.194;5.532;2023-05-31T09:56:18;17.40;99.90
51557;DHT22;38766;53.194;5.532;2023-05-31T09:58:44;17.50;99.90
51557;DHT22;38766;53.194;5.532;2023-05-31T10:01:10;17.60;99.90
51557;DHT22;38766;53.194;5.532;2023-05-31T10:03:36;17.60;99.90
51557;DHT22;38766;53.194;5.532;2023-05-31T10:06:03;17.50;99.90
51557;DHT22;38766;53.194;5.532;2023-05-31T10:08:29;17.60;99.90
51557;DHT22;38766;53.194;5.532;2023-05-31T10:10:58;17.60;99.90
51557;DHT22;38766;53.194;5.532;2023-05-31T10:13:32;17.50;99.90
51557;DHT22;38766;53.194;5.532;2023-05-31T10:16:05;17.40;99.90
51557;DHT22;38766;53.194;5.532;2023-05-31T10:18:32;17.50;99.90
51557;DHT22;38766;53.194;5.532;2023-05-31T10:21:19;17.60;99.90
51557;DHT22;38766;53.194;5.532;2023-05-31T10:24:20;17.70;99.90
51557;DHT22;38766;53.194;5.532;2023-05-31T10:29:40;18.00;99.90
51557;DHT22;38766;53.194;5.532;2023-05-31T10:32:19;18.10;99.90
51557;DHT22;38766;53.194;5.532;2023-05-31T10:34:49;18.10;99.90
51557;DHT22;38766;53.194;5.532;2023-05-31T10:37:16;18.10;99.90
51557;DHT22;38766;53.194;5.532;2023-05-31T10:39:49;18.10;99.90
51557;DHT22;38766;53.194;5.532;2023-05-31T10:42:29;18.20;99.90
51557;DHT22;38766;53.194;5.532;2023-05-31T10:45:08;18.30;99.90
51557;DHT22;38766;53.194;5.532;2023-05-31T10:47:51;18.30;99.90
51557;DHT22;38766;53.194;5.532;2023-05-31T10:50:19;18.50;99.90
51557;DHT22;38766;53.194;5.532;2023-05-31T10:52:49;18.60;99.90
51557;DHT22;38766;53.194;5.532;2023-05-31T10:55:22;18.50;99.90
51557;DHT22;38766;53.194;5.532;2023-05-31T10:57:55;18.60;99.90
51557;DHT22;38766;53.194;5.532;2023-05-31T11:00:24;18.70;99.90
51557;DHT22;38766;53.194;5.532;2023-05-31T11:02:53;18.70;99.90
51557;DHT22;38766;53.194;5.532;2023-05-31T11:05:23;18.70;99.90
51557;DHT22;38766;53.194;5.532;2023-05-31T11:07:51;18.70;99.90
51557;DHT22;38766;53.194;5.532;2023-05-31T11:10:25;18.90;99.90
51557;DHT22;38766;53.194;5.532;2023-05-31T11:12:55;18.90;99.90
51557;DHT22;38766;53.194;5.532;2023-05-31T11:15:21;18.90;99.90
51557;DHT22;38766;53.194;5.532;2023-05-31T11:17:51;18.90;99.90
51557;DHT22;38766;53.194;5.532;2023-05-31T11:20:18;19.00;99.90
51557;DHT22;38766;53.194;5.532;2023-05-31T11:22:45;18.90;99.90
51557;DHT22;38766;53.194;5.532;2023-05-31T11:25:18;18.90;99.90
51557;DHT22;38766;53.194;5.532;2023-05-31T11:27:47;19.00;99.90
51557;DHT22;38766;53.194;5.532;2023-05-31T11:30:16;19.00;99.90
51557;DHT22;38766;53.194;5.532;2023-05-31T11:35:14;19.10;99.90
51557;DHT22;38766;53.194;5.532;2023-05-31T11:37:42;19.10;99.90
51557;DHT22;38766;53.194;5.532;2023-05-31T11:40:14;19.10;99.90
51557;DHT22;38766;53.194;5.532;2023-05-31T11:42:44;19.00;99.90
51557;DHT22;38766;53.194;5.532;2023-05-31T11:45:14;19.10;99.90
51557;DHT22;38766;53.194;5.532;2023-05-31T11:47:55;19.10;99.90
51557;DHT22;38766;53.194;5.532;2023-05-31T11:50:25;19.20;99.90
51557;DHT22;38766;53.194;5.532;2023-05-31T11:52:51;19.10;99.90
51557;DHT22;38766;53.194;5.532;2023-05-31T11:55:20;19.10;99.90
51557;DHT22;38766;53.194;5.532;2023-05-31T11:57:48;19.20;99.90
51557;DHT22;38766;53.194;5.532;2023-05-31T12:00:19;19.30;99.90
51557;DHT22;38766;53.194;5.532;2023-05-31T12:02:51;19.30;99.90
51557;DHT22;38766;53.194;5.532;2023-05-31T12:05:18;19.30;99.90
51557;DHT22;38766;53.194;5.532;2023-05-31T12:07:45;19.30;99.90
51557;DHT22;38766;53.194;5.532;2023-05-31T12:10:11;19.40;99.90
51557;DHT22;38766;53.194;5.532;2023-05-31T12:12:38;19.50;99.90
51557;DHT22;38766;53.194;5.532;2023-05-31T12:15:06;19.40;99.90
51557;DHT22;38766;53.194;5.532;2023-05-31T12:17:32;19.40;99.90
51557;DHT22;38766;53.194;5.532;2023-05-31T12:19:58;19.40;99.90
51557;DHT22;38766;53.194;5.532;2023-05-31T12:22:24;19.30;99.90
51557;DHT22;38766;53.194;5.532;2023-05-31T12:24:54;19.40;99.90
51557;DHT22;38766;53.194;5.532;2023-05-31T12:27:22;19.50;99.90
51557;DHT22;38766;53.194;5.532;2023-05-31T12:29:48;19.50;99.90
51557;DHT22;38766;53.194;5.532;2023-05-31T12:32:13;19.50;99.90
51557;DHT22;38766;53.194;5.532;2023-05-31T12:34:42;19.50;99.90
51557;DHT22;38766;53.194;5.532;2023-05-31T12:37:09;19.50;99.90
51557;DHT22;38766;53.194;5.532;2023-05-31T12:39:36;19.40;99.90
51557;DHT22;38766;53.194;5.532;2023-05-31T12:42:03;19.40;99.90
51557;DHT22;38766;53.194;5.532;2023-05-31T12:44:30;19.40;99.90
51557;DHT22;38766;53.194;5.532;2023-05-31T12:47:08;19.40;99.90
51557;DHT22;38766;53.194;5.532;2023-05-31T12:49:35;19.40;99.90
51557;DHT22;38766;53.194;5.532;2023-05-31T12:52:06;19.40;99.90
51557;DHT22;38766;53.194;5.532;2023-05-31T12:54:38;19.50;99.90
51557;DHT22;38766;53.194;5.532;2023-05-31T12:57:06;19.40;99.90
51557;DHT22;38766;53.194;5.532;2023-05-31T12:59:33;19.40;99.90
51557;DHT22;38766;53.194;5.532;2023-05-31T13:02:01;19.40;99.90
51557;DHT22;38766;53.194;5.532;2023-05-31T13:04:27;19.50;99.90
51557;DHT22;38766;53.194;5.532;2023-05-31T13:06:53;19.50;99.90
51557;DHT22;38766;53.194;5.532;2023-05-31T13:09:19;19.50;99.90
51557;DHT22;38766;53.194;5.532;2023-05-31T13:11:45;19.40;99.90
51557;DHT22;38766;53.194;5.532;2023-05-31T13:14:14;19.50;99.90
51557;DHT22;38766;53.194;5.532;2023-05-31T13:16:40;19.50;99.90
51557;DHT22;38766;53.194;5.532;2023-05-31T13:19:07;19.50;99.90
51557;DHT22;38766;53.194;5.532;2023-05-31T13:21:34;19.50;99.90
51557;DHT22;38766;53.194;5.532;2023-05-31T13:24:02;19.40;99.90
51557;DHT22;38766;53.194;5.532;2023-05-31T13:26:28;19.40;99.90
51557;DHT22;38766;53.194;5.532;2023-05-31T13:28:58;19.40;99.90
51557;DHT22;38766;53.194;5.532;2023-05-31T13:31:25;19.40;99.90
51557;DHT22;38766;53.194;5.532;2023-05-31T13:33:52;19.30;99.90
51557;DHT22;38766;53.194;5.532;2023-05-31T13:36:18;19.20;99.90
51557;DHT22;38766;53.194;5.532;2023-05-31T13:38:49;19.20;99.90
51557;DHT22;38766;53.194;5.532;2023-05-31T13:41:16;19.20;99.90
51557;DHT22;38766;53.194;5.532;2023-05-31T13:43:43;19.20;99.90
51557;DHT22;38766;53.194;5.532;2023-05-31T13:46:09;19.10;99.90
51557;DHT22;38766;53.194;5.532;2023-05-31T13:48:39;19.10;99.90
51557;DHT22;38766;53.194;5.532;2023-05-31T13:51:05;19.10;99.90
51557;DHT22;38766;53.194;5.532;2023-05-31T13:53:32;19.20;99.90
51557;DHT22;38766;53.194;5.532;2023-05-31T13:55:58;19.10;99.90
51557;DHT22;38766;53.194;5.532;2023-05-31T13:58:24;19.00;99.90
51557;DHT22;38766;53.194;5.532;2023-05-31T14:00:50;19.00;99.90
51557;DHT22;38766;53.194;5.532;2023-05-31T14:03:16;19.00;99.90
51557;DHT22;38766;53.194;5.532;2023-05-31T14:05:43;19.00;99.90
51557;DHT22;38766;53.194;5.532;2023-05-31T14:08:10;18.80;99.90
51557;DHT22;38766;53.194;5.532;2023-05-31T14:10:36;18.70;99.90
51557;DHT22;38766;53.194;5.532;2023-05-31T14:13:02;18.70;99.90
51557;DHT22;38766;53.194;5.532;2023-05-31T14:15:28;18.70;99.90
51557;DHT22;38766;53.194;5.532;2023-05-31T14:17:54;18.80;99.90
51557;DHT22;38766;53.194;5.532;2023-05-31T14:20:19;18.80;99.90
51557;DHT22;38766;53.194;5.532;2023-05-31T14:22:45;18.90;99.90
51557;DHT22;38766;53.194;5.532;2023-05-31T14:25:11;18.90;99.90
51557;DHT22;38766;53.194;5.532;2023-05-31T14:27:37;18.90;99.90
51557;DHT22;38766;53.194;5.532;2023-05-31T14:30:02;19.00;99.90
51557;DHT22;38766;53.194;5.532;2023-05-31T14:32:30;19.00;99.90
51557;DHT22;38766;53.194;5.532;2023-05-31T14:34:56;18.90;99.90
51557;DHT22;38766;53.194;5.532;2023-05-31T14:37:21;19.00;99.90
51557;DHT22;38766;53.194;5.532;2023-05-31T14:39:47;19.00;99.90
51557;DHT22;38766;53.194;5.532;2023-05-31T14:42:13;19.00;99.90
51557;DHT22;38766;53.194;5.532;2023-05-31T14:44:39;18.90;99.90
51557;DHT22;38766;53.194;5.532;2023-05-31T14:47:05;18.90;99.90
51557;DHT22;38766;53.194;5.532;2023-05-31T14:49:31;18.80;99.90
51557;DHT22;38766;53.194;5.532;2023-05-31T14:51:57;18.90;99.90
51557;DHT22;38766;53.194;5.532;2023-05-31T14:54:23;18.80;99.90
51557;DHT22;38766;53.194;5.532;2023-05-31T14:56:49;18.70;99.90
51557;DHT22;38766;53.194;5.532;2023-05-31T14:59:15;18.60;99.90
51557;DHT22;38766;53.194;5.532;2023-05-31T15:01:41;18.60;99.90
51557;DHT22;38766;53.194;5.532;2023-05-31T15:04:14;18.60;99.90
51557;DHT22;38766;53.194;5.532;2023-05-31T15:06:41;18.50;99.90
51557;DHT22;38766;53.194;5.532;2023-05-31T15:09:08;18.40;99.90
51557;DHT22;38766;53.194;5.532;2023-05-31T15:11:36;18.20;99.90
51557;DHT22;38766;53.194;5.532;2023-05-31T15:14:03;18.20;99.90
51557;DHT22;38766;53.194;5.532;2023-05-31T15:16:29;18.10;99.90
51557;DHT22;38766;53.194;5.532;2023-05-31T15:18:55;18.10;99.90
51557;DHT22;38766;53.194;5.532;2023-05-31T15:21:20;17.90;99.90
51557;DHT22;38766;53.194;5.532;2023-05-31T15:23:46;17.80;99.90
51557;DHT22;38766;53.194;5.532;2023-05-31T15:26:12;17.80;99.90
51557;DHT22;38766;53.194;5.532;2023-05-31T15:28:38;17.80;99.90
51557;DHT22;38766;53.194;5.532;2023-05-31T15:31:04;17.90;99.90
51557;DHT22;38766;53.194;5.532;2023-05-31T15:33:36;17.80;99.90
51557;DHT22;38766;53.194;5.532;2023-05-31T15:36:03;17.80;99.90
51557;DHT22;38766;53.194;5.532;2023-05-31T15:38:29;17.80;99.90
51557;DHT22;38766;53.194;5.532;2023-05-31T15:40:55;17.70;99.90
51557;DHT22;38766;53.194;5.532;2023-05-31T15:43:24;17.70;99.90
51557;DHT22;38766;53.194;5.532;2023-05-31T15:45:51;17.70;99.90
51557;DHT22;38766;53.194;5.532;2023-05-31T15:48:20;17.80;99.90
51557;DHT22;38766;53.194;5.532;2023-05-31T15:50:47;17.70;99.90
51557;DHT22;38766;53.194;5.532;2023-05-31T15:53:12;17.70;99.90
51557;DHT22;38766;53.194;5.532;2023-05-31T15:55:38;17.60;99.90
51557;DHT22;38766;53.194;5.532;2023-05-31T15:58:05;17.60;99.90
51557;DHT22;38766;53.194;5.532;2023-05-31T16:00:31;17.40;99.90
51557;DHT22;38766;53.194;5.532;2023-05-31T16:02:57;17.40;99.90
51557;DHT22;38766;53.194;5.532;2023-05-31T16:05:22;17.30;99.90
51557;DHT22;38766;53.194;5.532;2023-05-31T16:07:48;17.20;99.90
51557;DHT22;38766;53.194;5.532;2023-05-31T16:10:14;17.20;99.90
51557;DHT22;38766;53.194;5.532;2023-05-31T16:12:43;17.20;99.90
51557;DHT22;38766;53.194;5.532;2023-05-31T16:15:09;17.10;99.90
51557;DHT22;38766;53.194;5.532;2023-05-31T16:17:36;17.10;99.90
51557;DHT22;38766;53.194;5.532;2023-05-31T16:20:02;17.10;99.90
51557;DHT22;38766;53.194;5.532;2023-05-31T16:22:29;17.10;99.90
51557;DHT22;38766;53.194;5.532;2023-05-31T16:24:54;17.00;99.90
51557;DHT22;38766;53.194;5.532;2023-05-31T16:27:20;16.90;99.90
51557;DHT22;38766;53.194;5.532;2023-05-31T16:29:46;16.90;99.90
51557;DHT22;38766;53.194;5.532;2023-05-31T16:32:12;16.90;99.90
51557;DHT22;38766;53.194;5.532;2023-05-31T16:34:37;16.80;99.90